sensor_id;sensor_type;location;lat;lon;timestamp;pressure;altitude;pressure_sealevel;temperature;humidity
68329;BME280;55182;56.864;60.554;2024-01-30T00:01:43;77284.38;;;-143.60;86.11
68329;BME280;55182;56.864;60.554;2024-01-30T00:04:09;77278.34;;;-143.60;86.20
68329;BME280;55182;56.864;60.554;2024-01-30T00:06:34;77276.34;;;-143.60;86.09
68329;BME280;55182;56.864;60.554;2024-01-30T00:09:00;77276.34;;;-143.60;86.25
68329;BME280;55182;56.864;60.554;2024-01-30T00:11:25;77268.28;;;-143.60;86.15
68329;BME280;55182;56.864;60.554;2024-01-30T00:13:51;77256.22;;;-143.60;86.06
68329;BME280;55182;56.864;60.554;2024-01-30T00:16:20;77258.25;;;-143.60;85.80
68329;BME280;55182;56.864;60.554;2024-01-30T00:18:46;77260.25;;;-143.60;85.65
68329;BME280;55182;56.864;60.554;2024-01-30T00:21:11;77264.28;;;-143.60;85.65
68329;BME280;55182;56.864;60.554;2024-01-30T00:23:37;77256.22;;;-143.60;85.65
68329;BME280;55182;56.864;60.554;2024-01-30T00:26:02;77252.22;;;-143.60;85.85
68329;BME280;55182;56.864;60.554;2024-01-30T00:28:28;77248.19;;;-143.60;86.17
68329;BME280;55182;56.864;60.554;2024-01-30T00:30:53;77240.16;;;-143.60;85.94
68329;BME280;55182;56.864;60.554;2024-01-30T00:33:19;77244.19;;;-143.60;85.91
68329;BME280;55182;56.864;60.554;2024-01-30T00:35:44;77244.19;;;-143.60;85.88
68329;BME280;55182;56.864;60.554;2024-01-30T00:38:10;77242.16;;;-143.60;85.93
68329;BME280;55182;56.864;60.554;2024-01-30T00:40:35;77236.13;;;-143.60;86.01
68329;BME280;55182;56.864;60.554;2024-01-30T00:43:00;77232.13;;;-143.60;86.02
68329;BME280;55182;56.864;60.554;2024-01-30T00:45:26;77228.09;;;-143.60;85.96
68329;BME280;55182;56.864;60.554;2024-01-30T00:47:51;77220.06;;;-143.60;85.87
68329;BME280;55182;56.864;60.554;2024-01-30T00:50:17;77220.06;;;-143.60;85.75
68329;BME280;55182;56.864;60.554;2024-01-30T00:52:42;77210.00;;;-143.60;85.84
68329;BME280;55182;56.864;60.554;2024-01-30T00:55:07;77214.03;;;-143.60;86.01
68329;BME280;55182;56.864;60.554;2024-01-30T00:57:33;77212.00;;;-143.60;85.65
68329;BME280;55182;56.864;60.554;2024-01-30T00:59:58;77212.00;;;-143.60;85.83
68329;BME280;55182;56.864;60.554;2024-01-30T01:02:24;77205.97;;;-143.60;85.67
68329;BME280;55182;56.864;60.554;2024-01-30T01:04:50;77210.00;;;-143.60;85.64
68329;BME280;55182;56.864;60.554;2024-01-30T01:07:15;77208.00;;;-143.60;85.57
68329;BME280;55182;56.864;60.554;2024-01-30T01:09:41;77201.97;;;-143.60;85.98
68329;BME280;55182;56.864;60.554;2024-01-30T01:12:06;77195.94;;;-143.60;86.02
68329;BME280;55182;56.864;60.554;2024-01-30T01:14:32;77189.91;;;-143.60;85.91
68329;BME280;55182;56.864;60.554;2024-01-30T01:16:57;77191.91;;;-143.60;86.00
68329;BME280;55182;56.864;60.554;2024-01-30T01:19:23;77189.91;;;-143.60;85.92
68329;BME280;55182;56.864;60.554;2024-01-30T01:21:48;77183.88;;;-143.60;85.88
68329;BME280;55182;56.864;60.554;2024-01-30T01:24:14;77179.84;;;-143.60;85.78
68329;BME280;55182;56.864;60.554;2024-01-30T01:26:39;77175.84;;;-143.60;85.80
68329;BME280;55182;56.864;60.554;2024-01-30T01:29:06;77169.81;;;-143.60;85.64
68329;BME280;55182;56.864;60.554;2024-01-30T01:31:31;77169.81;;;-143.60;85.81
68329;BME280;55182;56.864;60.554;2024-01-30T01:33:56;77167.78;;;-143.60;85.78
68329;BME280;55182;56.864;60.554;2024-01-30T01:36:22;77163.78;;;-143.60;85.81
68329;BME280;55182;56.864;60.554;2024-01-30T01:38:47;77155.72;;;-143.60;85.84
68329;BME280;55182;56.864;60.554;2024-01-30T01:41:13;77155.72;;;-143.60;85.96
68329;BME280;55182;56.864;60.554;2024-01-30T01:43:38;77149.69;;;-143.60;85.77
68329;BME280;55182;56.864;60.554;2024-01-30T01:46:03;77145.69;;;-143.60;85.74
68329;BME280;55182;56.864;60.554;2024-01-30T01:48:29;77143.69;;;-143.60;85.64
68329;BME280;55182;56.864;60.554;2024-01-30T01:50:55;77143.69;;;-143.60;85.84
68329;BME280;55182;56.864;60.554;2024-01-30T01:53:20;77139.66;;;-143.60;85.63
68329;BME280;55182;56.864;60.554;2024-01-30T01:55:46;77141.66;;;-143.60;85.63
68329;BME280;55182;56.864;60.554;2024-01-30T01:58:13;77131.63;;;-143.60;85.92
68329;BME280;55182;56.864;60.554;2024-01-30T02:00:38;77135.63;;;-143.60;85.87
68329;BME280;55182;56.864;60.554;2024-01-30T02:03:04;77127.59;;;-143.60;85.96
68329;BME280;55182;56.864;60.554;2024-01-30T02:05:31;77127.59;;;-143.60;85.90
68329;BME280;55182;56.864;60.554;2024-01-30T02:07:57;77131.63;;;-143.60;86.01
68329;BME280;55182;56.864;60.554;2024-01-30T02:10:23;77119.56;;;-143.60;85.98
68329;BME280;55182;56.864;60.554;2024-01-30T02:12:48;77119.56;;;-143.60;86.19
68329;BME280;55182;56.864;60.554;2024-01-30T02:15:14;77119.56;;;-143.60;86.08
68329;BME280;55182;56.864;60.554;2024-01-30T02:17:39;77113.53;;;-143.60;86.06
68329;BME280;55182;56.864;60.554;2024-01-30T02:20:05;77113.53;;;-143.60;86.04
68329;BME280;55182;56.864;60.554;2024-01-30T02:22:31;77111.50;;;-143.60;85.88
68329;BME280;55182;56.864;60.554;2024-01-30T02:24:57;77107.50;;;-143.60;85.96
68329;BME280;55182;56.864;60.554;2024-01-30T02:27:23;77103.47;;;-143.60;86.11
68329;BME280;55182;56.864;60.554;2024-01-30T02:29:48;77103.47;;;-143.60;86.37
68329;BME280;55182;56.864;60.554;2024-01-30T02:32:14;77095.44;;;-143.60;86.40
68329;BME280;55182;56.864;60.554;2024-01-30T02:34:39;77089.41;;;-143.60;86.37
68329;BME280;55182;56.864;60.554;2024-01-30T02:37:04;77081.38;;;-143.60;86.38
68329;BME280;55182;56.864;60.554;2024-01-30T02:39:30;77081.38;;;-143.60;86.47
68329;BME280;55182;56.864;60.554;2024-01-30T02:41:55;77079.34;;;-143.60;86.44
68329;BME280;55182;56.864;60.554;2024-01-30T02:44:21;77079.34;;;-143.60;86.69
68329;BME280;55182;56.864;60.554;2024-01-30T02:46:46;77069.31;;;-143.60;86.81
68329;BME280;55182;56.864;60.554;2024-01-30T02:49:12;77073.31;;;-143.60;86.94
68329;BME280;55182;56.864;60.554;2024-01-30T02:51:37;77073.31;;;-143.60;86.90
68329;BME280;55182;56.864;60.554;2024-01-30T02:54:03;77067.28;;;-143.60;87.06
68329;BME280;55182;56.864;60.554;2024-01-30T02:56:28;77059.25;;;-143.60;87.34
68329;BME280;55182;56.864;60.554;2024-01-30T02:58:54;77051.22;;;-143.60;87.36
68329;BME280;55182;56.864;60.554;2024-01-30T03:01:19;77055.22;;;-143.60;87.35
68329;BME280;55182;56.864;60.554;2024-01-30T03:03:45;77053.22;;;-143.60;87.48
68329;BME280;55182;56.864;60.554;2024-01-30T03:06:10;77047.19;;;-143.60;87.40
68329;BME280;55182;56.864;60.554;2024-01-30T03:08:36;77043.19;;;-143.60;87.54
68329;BME280;55182;56.864;60.554;2024-01-30T03:11:01;77045.19;;;-143.60;87.53
68329;BME280;55182;56.864;60.554;2024-01-30T03:13:27;77037.16;;;-143.60;87.60
68329;BME280;55182;56.864;60.554;2024-01-30T03:15:52;77039.16;;;-143.60;87.64
68329;BME280;55182;56.864;60.554;2024-01-30T03:18:18;77033.13;;;-143.60;87.45
68329;BME280;55182;56.864;60.554;2024-01-30T03:20:44;77027.09;;;-143.60;87.66
68329;BME280;55182;56.864;60.554;2024-01-30T03:23:09;77027.09;;;-143.60;87.62
68329;BME280;55182;56.864;60.554;2024-01-30T03:25:34;77025.09;;;-143.60;87.68
68329;BME280;55182;56.864;60.554;2024-01-30T03:28:00;77019.06;;;-143.60;87.74
68329;BME280;55182;56.864;60.554;2024-01-30T03:30:25;77023.06;;;-143.60;87.66
68329;BME280;55182;56.864;60.554;2024-01-30T03:32:51;77019.06;;;-143.60;87.69
68329;BME280;55182;56.864;60.554;2024-01-30T03:35:16;77015.03;;;-143.60;87.76
68329;BME280;55182;56.864;60.554;2024-01-30T03:37:42;77009.00;;;-143.60;87.70
68329;BME280;55182;56.864;60.554;2024-01-30T03:40:07;77002.97;;;-143.60;87.56
68329;BME280;55182;56.864;60.554;2024-01-30T03:42:33;77000.97;;;-143.60;87.47
68329;BME280;55182;56.864;60.554;2024-01-30T03:44:58;76992.94;;;-143.60;87.42
68329;BME280;55182;56.864;60.554;2024-01-30T03:47:24;76994.94;;;-143.60;87.35
68329;BME280;55182;56.864;60.554;2024-01-30T03:49:49;76990.91;;;-143.60;87.32
68329;BME280;55182;56.864;60.554;2024-01-30T03:52:15;76990.91;;;-143.60;87.35
68329;BME280;55182;56.864;60.554;2024-01-30T03:54:40;76986.91;;;-143.60;87.32
68329;BME280;55182;56.864;60.554;2024-01-30T03:57:05;76982.88;;;-143.60;87.25
68329;BME280;55182;56.864;60.554;2024-01-30T03:59:31;76982.88;;;-143.60;87.09
68329;BME280;55182;56.864;60.554;2024-01-30T04:01:56;76976.84;;;-143.60;87.18
68329;BME280;55182;56.864;60.554;2024-01-30T04:04:22;76976.84;;;-143.60;87.16
68329;BME280;55182;56.864;60.554;2024-01-30T04:06:47;76976.84;;;-143.60;87.18
68329;BME280;55182;56.864;60.554;2024-01-30T04:09:13;76978.84;;;-143.60;87.21
68329;BME280;55182;56.864;60.554;2024-01-30T04:11:39;76970.81;;;-143.60;87.01
68329;BME280;55182;56.864;60.554;2024-01-30T04:14:04;76970.81;;;-143.60;87.04
68329;BME280;55182;56.864;60.554;2024-01-30T04:16:30;76968.81;;;-143.60;87.04
68329;BME280;55182;56.864;60.554;2024-01-30T04:18:56;76962.78;;;-143.60;87.04
68329;BME280;55182;56.864;60.554;2024-01-30T04:21:21;76956.75;;;-143.60;86.97
68329;BME280;55182;56.864;60.554;2024-01-30T04:23:47;76954.75;;;-143.60;87.09
68329;BME280;55182;56.864;60.554;2024-01-30T04:26:12;76950.72;;;-143.60;87.01
68329;BME280;55182;56.864;60.554;2024-01-30T04:28:38;76944.69;;;-143.60;87.13
68329;BME280;55182;56.864;60.554;2024-01-30T04:31:03;76946.69;;;-143.60;86.73
68329;BME280;55182;56.864;60.554;2024-01-30T04:33:29;76948.72;;;-143.60;86.73
68329;BME280;55182;56.864;60.554;2024-01-30T04:35:54;76942.69;;;-143.60;86.31
68329;BME280;55182;56.864;60.554;2024-01-30T04:38:20;76946.69;;;-143.60;86.28
68329;BME280;55182;56.864;60.554;2024-01-30T04:40:45;76942.69;;;-143.60;86.07
68329;BME280;55182;56.864;60.554;2024-01-30T04:43:11;76948.72;;;-143.60;86.09
68329;BME280;55182;56.864;60.554;2024-01-30T04:45:36;76942.69;;;-143.60;85.99
68329;BME280;55182;56.864;60.554;2024-01-30T04:48:01;76944.69;;;-143.60;86.04
68329;BME280;55182;56.864;60.554;2024-01-30T04:50:27;76942.69;;;-143.60;85.83
68329;BME280;55182;56.864;60.554;2024-01-30T04:52:52;76934.63;;;-143.60;85.91
68329;BME280;55182;56.864;60.554;2024-01-30T04:55:18;76938.66;;;-143.60;85.74
68329;BME280;55182;56.864;60.554;2024-01-30T04:57:43;76932.63;;;-143.60;85.98
68329;BME280;55182;56.864;60.554;2024-01-30T05:00:09;76930.63;;;-143.60;85.81
68329;BME280;55182;56.864;60.554;2024-01-30T05:02:34;76926.59;;;-143.60;85.78
68329;BME280;55182;56.864;60.554;2024-01-30T05:05:00;76926.59;;;-143.60;85.79
68329;BME280;55182;56.864;60.554;2024-01-30T05:07:25;76918.56;;;-143.60;85.96
68329;BME280;55182;56.864;60.554;2024-01-30T05:09:51;76918.56;;;-143.60;85.75
68329;BME280;55182;56.864;60.554;2024-01-30T05:12:16;76910.53;;;-143.60;85.60
68329;BME280;55182;56.864;60.554;2024-01-30T05:14:42;76902.47;;;-143.60;85.62
68329;BME280;55182;56.864;60.554;2024-01-30T05:17:07;76900.47;;;-143.60;85.40
68329;BME280;55182;56.864;60.554;2024-01-30T05:19:33;76900.47;;;-143.60;85.50
68329;BME280;55182;56.864;60.554;2024-01-30T05:21:58;76896.44;;;-143.60;85.39
68329;BME280;55182;56.864;60.554;2024-01-30T05:24:24;76892.44;;;-143.60;85.44
68329;BME280;55182;56.864;60.554;2024-01-30T05:26:49;76880.38;;;-143.60;85.53
68329;BME280;55182;56.864;60.554;2024-01-30T05:29:15;76876.34;;;-143.60;85.52
68329;BME280;55182;56.864;60.554;2024-01-30T05:31:40;76874.34;;;-143.60;85.52
68329;BME280;55182;56.864;60.554;2024-01-30T05:34:06;76870.31;;;-143.60;85.50
68329;BME280;55182;56.864;60.554;2024-01-30T05:36:31;76864.28;;;-143.60;85.51
68329;BME280;55182;56.864;60.554;2024-01-30T05:38:57;76860.28;;;-143.60;85.81
68329;BME280;55182;56.864;60.554;2024-01-30T05:41:22;76846.22;;;-143.60;86.01
68329;BME280;55182;56.864;60.554;2024-01-30T05:43:47;76844.19;;;-143.60;85.85
68329;BME280;55182;56.864;60.554;2024-01-30T05:46:13;76838.16;;;-143.60;85.93
68329;BME280;55182;56.864;60.554;2024-01-30T05:48:38;76828.13;;;-143.60;85.78
68329;BME280;55182;56.864;60.554;2024-01-30T05:51:04;76826.09;;;-143.60;85.65
68329;BME280;55182;56.864;60.554;2024-01-30T05:53:29;76822.09;;;-143.60;85.72
68329;BME280;55182;56.864;60.554;2024-01-30T05:55:55;76818.06;;;-143.60;85.60
68329;BME280;55182;56.864;60.554;2024-01-30T05:58:20;76806.00;;;-143.60;85.55
68329;BME280;55182;56.864;60.554;2024-01-30T06:00:46;76808.03;;;-143.60;85.52
68329;BME280;55182;56.864;60.554;2024-01-30T06:03:11;76797.97;;;-143.60;85.28
68329;BME280;55182;56.864;60.554;2024-01-30T06:05:37;76799.97;;;-143.60;85.05
68329;BME280;55182;56.864;60.554;2024-01-30T06:08:02;76793.94;;;-143.60;85.08
68329;BME280;55182;56.864;60.554;2024-01-30T06:10:28;76789.94;;;-143.60;84.99
68329;BME280;55182;56.864;60.554;2024-01-30T06:12:53;76781.91;;;-143.60;84.87
68329;BME280;55182;56.864;60.554;2024-01-30T06:15:19;76777.88;;;-143.60;84.85
68329;BME280;55182;56.864;60.554;2024-01-30T06:17:44;76775.88;;;-143.60;84.66
68329;BME280;55182;56.864;60.554;2024-01-30T06:20:10;76777.88;;;-143.60;84.80
68329;BME280;55182;56.864;60.554;2024-01-30T06:22:35;76773.84;;;-143.60;84.77
68329;BME280;55182;56.864;60.554;2024-01-30T06:25:01;76769.84;;;-143.60;84.75
68329;BME280;55182;56.864;60.554;2024-01-30T06:27:27;76755.75;;;-143.60;84.69
68329;BME280;55182;56.864;60.554;2024-01-30T06:29:52;76745.72;;;-143.60;84.75
68329;BME280;55182;56.864;60.554;2024-01-30T06:32:18;76737.69;;;-143.60;84.35
68329;BME280;55182;56.864;60.554;2024-01-30T06:34:43;76721.59;;;-143.60;84.36
68329;BME280;55182;56.864;60.554;2024-01-30T06:37:09;76717.56;;;-143.60;84.44
68329;BME280;55182;56.864;60.554;2024-01-30T06:39:34;76709.53;;;-143.60;84.08
68329;BME280;55182;56.864;60.554;2024-01-30T06:42:00;76699.50;;;-143.60;84.15
68329;BME280;55182;56.864;60.554;2024-01-30T06:44:26;76697.47;;;-143.60;84.41
68329;BME280;55182;56.864;60.554;2024-01-30T06:46:51;76689.44;;;-143.60;84.04
68329;BME280;55182;56.864;60.554;2024-01-30T06:49:16;76689.44;;;-143.60;83.82
68329;BME280;55182;56.864;60.554;2024-01-30T06:51:42;76681.41;;;-143.60;83.64
68329;BME280;55182;56.864;60.554;2024-01-30T06:54:08;76683.41;;;-143.60;83.77
68329;BME280;55182;56.864;60.554;2024-01-30T06:56:33;76673.38;;;-143.60;83.58
68329;BME280;55182;56.864;60.554;2024-01-30T06:58:59;76665.31;;;-143.60;83.58
68329;BME280;55182;56.864;60.554;2024-01-30T07:01:30;76653.25;;;-143.60;83.48
68329;BME280;55182;56.864;60.554;2024-01-30T07:03:56;76645.22;;;-143.60;83.45
68329;BME280;55182;56.864;60.554;2024-01-30T07:06:21;76629.16;;;-143.60;83.31
68329;BME280;55182;56.864;60.554;2024-01-30T07:08:47;76621.13;;;-143.60;83.21
68329;BME280;55182;56.864;60.554;2024-01-30T07:11:17;76597.00;;;-143.60;82.97
68329;BME280;55182;56.864;60.554;2024-01-30T07:13:43;76586.94;;;-143.60;82.58
68329;BME280;55182;56.864;60.554;2024-01-30T07:16:08;76574.88;;;-143.60;82.55
68329;BME280;55182;56.864;60.554;2024-01-30T07:18:34;76568.84;;;-143.60;82.31
68329;BME280;55182;56.864;60.554;2024-01-30T07:20:59;76554.78;;;-143.60;81.88
68329;BME280;55182;56.864;60.554;2024-01-30T07:23:25;76552.78;;;-143.60;81.51
68329;BME280;55182;56.864;60.554;2024-01-30T07:25:50;76542.72;;;-143.60;81.67
68329;BME280;55182;56.864;60.554;2024-01-30T07:28:15;76542.72;;;-143.60;81.39
68329;BME280;55182;56.864;60.554;2024-01-30T07:30:41;76538.72;;;-143.60;81.31
68329;BME280;55182;56.864;60.554;2024-01-30T07:33:06;76524.66;;;-143.60;81.00
68329;BME280;55182;56.864;60.554;2024-01-30T07:35:32;76520.63;;;-143.60;81.16
68329;BME280;55182;56.864;60.554;2024-01-30T07:37:57;76514.59;;;-143.60;80.83
68329;BME280;55182;56.864;60.554;2024-01-30T07:40:23;76508.56;;;-143.60;80.90
68329;BME280;55182;56.864;60.554;2024-01-30T07:42:49;76502.53;;;-143.60;80.74
68329;BME280;55182;56.864;60.554;2024-01-30T07:45:14;76498.53;;;-143.60;80.60
68329;BME280;55182;56.864;60.554;2024-01-30T07:47:40;76496.50;;;-143.60;80.59
68329;BME280;55182;56.864;60.554;2024-01-30T07:50:05;76490.47;;;-143.60;80.43
68329;BME280;55182;56.864;60.554;2024-01-30T07:52:31;76484.44;;;-143.60;80.82
68329;BME280;55182;56.864;60.554;2024-01-30T07:55:12;76484.44;;;-143.60;80.62
68329;BME280;55182;56.864;60.554;2024-01-30T07:58:11;76480.44;;;-143.60;80.40
68329;BME280;55182;56.864;60.554;2024-01-30T08:00:36;76470.38;;;-143.60;80.68
68329;BME280;55182;56.864;60.554;2024-01-30T08:03:02;76476.41;;;-143.60;80.64
68329;BME280;55182;56.864;60.554;2024-01-30T08:05:27;76476.41;;;-143.60;80.42
68329;BME280;55182;56.864;60.554;2024-01-30T08:07:53;76476.41;;;-143.60;80.20
68329;BME280;55182;56.864;60.554;2024-01-30T08:10:20;76472.41;;;-143.60;80.17
68329;BME280;55182;56.864;60.554;2024-01-30T08:12:45;76464.34;;;-143.60;80.35
68329;BME280;55182;56.864;60.554;2024-01-30T08:15:11;76452.31;;;-143.60;80.36
68329;BME280;55182;56.864;60.554;2024-01-30T08:17:37;76450.28;;;-143.60;80.09
68329;BME280;55182;56.864;60.554;2024-01-30T08:20:02;76444.25;;;-143.60;80.10
68329;BME280;55182;56.864;60.554;2024-01-30T08:22:28;76436.22;;;-143.60;80.32
68329;BME280;55182;56.864;60.554;2024-01-30T08:24:53;76424.16;;;-143.60;80.29
68329;BME280;55182;56.864;60.554;2024-01-30T08:27:19;76424.16;;;-143.60;80.25
68329;BME280;55182;56.864;60.554;2024-01-30T08:29:44;76416.13;;;-143.60;80.07
68329;BME280;55182;56.864;60.554;2024-01-30T08:32:10;76408.09;;;-143.60;79.89
68329;BME280;55182;56.864;60.554;2024-01-30T08:34:35;76404.06;;;-143.60;79.69
68329;BME280;55182;56.864;60.554;2024-01-30T08:37:01;76394.03;;;-143.60;79.18
68329;BME280;55182;56.864;60.554;2024-01-30T08:39:26;76379.94;;;-143.60;79.39
68329;BME280;55182;56.864;60.554;2024-01-30T08:41:52;76363.88;;;-143.60;79.42
68329;BME280;55182;56.864;60.554;2024-01-30T08:44:17;76359.84;;;-143.60;78.66
68329;BME280;55182;56.864;60.554;2024-01-30T08:46:43;76343.78;;;-143.60;78.56
68329;BME280;55182;56.864;60.554;2024-01-30T08:49:09;76325.69;;;-143.60;78.20
68329;BME280;55182;56.864;60.554;2024-01-30T08:51:34;76313.63;;;-143.60;77.73
68329;BME280;55182;56.864;60.554;2024-01-30T08:54:00;76301.59;;;-143.60;77.50
68329;BME280;55182;56.864;60.554;2024-01-30T08:56:25;76299.56;;;-143.60;77.32
68329;BME280;55182;56.864;60.554;2024-01-30T08:58:51;76285.50;;;-143.60;77.46
68329;BME280;55182;56.864;60.554;2024-01-30T09:01:16;76279.47;;;-143.60;76.98
68329;BME280;55182;56.864;60.554;2024-01-30T09:03:42;76269.44;;;-143.60;76.80
68329;BME280;55182;56.864;60.554;2024-01-30T09:06:10;76261.38;;;-143.60;76.96
68329;BME280;55182;56.864;60.554;2024-01-30T09:08:36;76257.38;;;-143.60;76.22
68329;BME280;55182;56.864;60.554;2024-01-30T09:11:02;76247.31;;;-143.60;76.09
68329;BME280;55182;56.864;60.554;2024-01-30T09:13:33;76249.34;;;-143.60;75.58
68329;BME280;55182;56.864;60.554;2024-01-30T09:15:58;76251.34;;;-143.60;75.24
68329;BME280;55182;56.864;60.554;2024-01-30T09:18:24;76257.38;;;-143.60;75.16
68329;BME280;55182;56.864;60.554;2024-01-30T09:20:49;76267.41;;;-143.60;76.15
68329;BME280;55182;56.864;60.554;2024-01-30T09:23:15;76267.41;;;-143.60;76.32
68329;BME280;55182;56.864;60.554;2024-01-30T09:25:40;76271.44;;;-143.60;76.38
68329;BME280;55182;56.864;60.554;2024-01-30T09:28:06;76271.44;;;-143.60;76.47
68329;BME280;55182;56.864;60.554;2024-01-30T09:30:31;76271.44;;;-143.60;77.01
68329;BME280;55182;56.864;60.554;2024-01-30T09:32:57;76271.44;;;-143.60;77.30
68329;BME280;55182;56.864;60.554;2024-01-30T09:35:22;76277.47;;;-143.60;77.40
68329;BME280;55182;56.864;60.554;2024-01-30T09:37:48;76283.50;;;-143.60;77.53
68329;BME280;55182;56.864;60.554;2024-01-30T09:40:13;76277.47;;;-143.60;77.89
68329;BME280;55182;56.864;60.554;2024-01-30T09:42:39;76273.44;;;-143.60;77.93
68329;BME280;55182;56.864;60.554;2024-01-30T09:45:05;76275.47;;;-143.60;78.20
68329;BME280;55182;56.864;60.554;2024-01-30T09:47:40;76275.47;;;-143.60;78.70
68329;BME280;55182;56.864;60.554;2024-01-30T09:50:06;76271.44;;;-143.60;79.18
68329;BME280;55182;56.864;60.554;2024-01-30T09:52:31;76273.44;;;-143.60;78.99
68329;BME280;55182;56.864;60.554;2024-01-30T09:54:58;76277.47;;;-143.60;79.02
68329;BME280;55182;56.864;60.554;2024-01-30T09:57:24;76281.47;;;-143.60;79.03
68329;BME280;55182;56.864;60.554;2024-01-30T09:59:50;76283.50;;;-143.60;79.10
68329;BME280;55182;56.864;60.554;2024-01-30T10:02:15;76279.47;;;-143.60;79.25
68329;BME280;55182;56.864;60.554;2024-01-30T10:04:41;76283.50;;;-143.60;79.50
68329;BME280;55182;56.864;60.554;2024-01-30T10:07:06;76283.50;;;-143.60;79.19
68329;BME280;55182;56.864;60.554;2024-01-30T10:09:32;76291.53;;;-143.60;79.40
68329;BME280;55182;56.864;60.554;2024-01-30T10:11:58;76303.59;;;-143.60;79.36
68329;BME280;55182;56.864;60.554;2024-01-30T10:14:23;76303.59;;;-143.60;79.68
68329;BME280;55182;56.864;60.554;2024-01-30T10:16:49;76299.56;;;-143.60;79.81
68329;BME280;55182;56.864;60.554;2024-01-30T10:19:14;76309.63;;;-143.60;80.02
68329;BME280;55182;56.864;60.554;2024-01-30T10:21:40;76307.59;;;-143.60;80.10
68329;BME280;55182;56.864;60.554;2024-01-30T10:24:06;76311.63;;;-143.60;80.48
68329;BME280;55182;56.864;60.554;2024-01-30T10:26:31;76303.59;;;-143.60;80.51
68329;BME280;55182;56.864;60.554;2024-01-30T10:28:57;76305.59;;;-143.60;80.69
68329;BME280;55182;56.864;60.554;2024-01-30T10:31:22;76303.59;;;-143.60;80.91
68329;BME280;55182;56.864;60.554;2024-01-30T10:33:47;76299.56;;;-143.60;80.84
68329;BME280;55182;56.864;60.554;2024-01-30T10:36:13;76295.56;;;-143.60;80.88
68329;BME280;55182;56.864;60.554;2024-01-30T10:38:39;76293.53;;;-143.60;80.74
68329;BME280;55182;56.864;60.554;2024-01-30T10:41:07;76285.50;;;-143.60;80.56
68329;BME280;55182;56.864;60.554;2024-01-30T10:43:37;76285.50;;;-143.60;80.17
68329;BME280;55182;56.864;60.554;2024-01-30T10:48:34;76279.47;;;-143.60;80.31
68329;BME280;55182;56.864;60.554;2024-01-30T10:51:01;76281.47;;;-143.60;80.30
68329;BME280;55182;56.864;60.554;2024-01-30T10:53:27;76279.47;;;-143.60;80.54
68329;BME280;55182;56.864;60.554;2024-01-30T10:55:53;76287.50;;;-143.60;80.39
68329;BME280;55182;56.864;60.554;2024-01-30T10:58:21;76287.50;;;-143.60;80.86
68329;BME280;55182;56.864;60.554;2024-01-30T11:00:47;76289.53;;;-143.60;81.13
68329;BME280;55182;56.864;60.554;2024-01-30T11:03:14;76287.50;;;-143.60;80.99
68329;BME280;55182;56.864;60.554;2024-01-30T11:05:40;76283.50;;;-143.60;81.07
68329;BME280;55182;56.864;60.554;2024-01-30T11:08:12;76287.50;;;-143.60;81.55
68329;BME280;55182;56.864;60.554;2024-01-30T11:10:45;76279.47;;;-143.60;81.60
68329;BME280;55182;56.864;60.554;2024-01-30T11:13:13;76275.47;;;-143.60;81.76
68329;BME280;55182;56.864;60.554;2024-01-30T11:15:38;76271.44;;;-143.60;81.80
68329;BME280;55182;56.864;60.554;2024-01-30T11:18:04;76273.44;;;-143.60;82.00
68329;BME280;55182;56.864;60.554;2024-01-30T11:20:30;76269.44;;;-143.60;81.93
68329;BME280;55182;56.864;60.554;2024-01-30T11:22:56;76275.47;;;-143.60;81.91
68329;BME280;55182;56.864;60.554;2024-01-30T11:25:22;76267.41;;;-143.60;82.03
68329;BME280;55182;56.864;60.554;2024-01-30T11:27:49;76263.41;;;-143.60;81.97
68329;BME280;55182;56.864;60.554;2024-01-30T11:30:21;76255.34;;;-143.60;82.04
68329;BME280;55182;56.864;60.554;2024-01-30T11:32:57;76255.34;;;-143.60;81.97
68329;BME280;55182;56.864;60.554;2024-01-30T11:35:22;76259.38;;;-143.60;81.98
68329;BME280;55182;56.864;60.554;2024-01-30T11:37:49;76253.34;;;-143.60;81.96
68329;BME280;55182;56.864;60.554;2024-01-30T11:40:15;76265.41;;;-143.60;81.93
68329;BME280;55182;56.864;60.554;2024-01-30T11:42:41;76261.38;;;-143.60;82.35
68329;BME280;55182;56.864;60.554;2024-01-30T11:45:07;76259.38;;;-143.60;82.14
68329;BME280;55182;56.864;60.554;2024-01-30T11:47:34;76263.41;;;-143.60;82.30
68329;BME280;55182;56.864;60.554;2024-01-30T11:50:00;76259.38;;;-143.60;82.65
68329;BME280;55182;56.864;60.554;2024-01-30T11:52:25;76259.38;;;-143.60;82.53
68329;BME280;55182;56.864;60.554;2024-01-30T11:54:51;76263.41;;;-143.60;82.80
68329;BME280;55182;56.864;60.554;2024-01-30T11:57:16;76259.38;;;-143.60;82.79
68329;BME280;55182;56.864;60.554;2024-01-30T11:59:42;76265.41;;;-143.60;82.60
68329;BME280;55182;56.864;60.554;2024-01-30T12:02:07;76261.38;;;-143.60;82.73
68329;BME280;55182;56.864;60.554;2024-01-30T12:04:33;76271.44;;;-143.60;82.68
68329;BME280;55182;56.864;60.554;2024-01-30T12:06:58;76269.44;;;-143.60;82.81
68329;BME280;55182;56.864;60.554;2024-01-30T12:09:24;76267.41;;;-143.60;82.65
68329;BME280;55182;56.864;60.554;2024-01-30T12:11:50;76273.44;;;-143.60;83.14
68329;BME280;55182;56.864;60.554;2024-01-30T12:14:16;76271.44;;;-143.60;83.43
68329;BME280;55182;56.864;60.554;2024-01-30T12:16:41;76269.44;;;-143.60;83.41
68329;BME280;55182;56.864;60.554;2024-01-30T12:19:07;76271.44;;;-143.60;83.08
68329;BME280;55182;56.864;60.554;2024-01-30T12:21:33;76271.44;;;-143.60;82.92
68329;BME280;55182;56.864;60.554;2024-01-30T12:23:59;76271.44;;;-143.60;83.10
68329;BME280;55182;56.864;60.554;2024-01-30T12:26:25;76267.41;;;-143.60;82.56